Time;durP1;ratioP1;P1;durP2;ratioP2;P2;SDS_P1;SDS_P2;PMS_P1;PMS_P2;Temp;Humidity;BMP_temperature;BMP_pressure;BME280_temperature;BME280_humidity;BME280_pressure;Samples;Min_cycle;Max_cycle;Signal;HPM_P1;HPM_P2
2021/10/13 00:02:14;;;;;;;1.88;0.30;;;;;;;;;;5029152;28;20029;-66
2021/10/13 00:04:39;;;;;;;0.40;0.20;;;;;;;;;;5030395;28;20030;-66
2021/10/13 00:07:05;;;;;;;0.65;0.30;;;;;;;;;;5030408;28;20034;-66
2021/10/13 00:09:30;;;;;;;0.80;0.30;;;;;;;;;;5030714;28;20017;-66
2021/10/13 00:11:56;;;;;;;1.95;0.30;;;;;;;;;;5029760;28;20036;-66
2021/10/13 00:14:22;;;;;;;1.08;0.25;;;;;;;;;;5030942;28;20028;-66
2021/10/13 00:16:55;;;;;;;0.20;0.20;;;;;;;;;;5030633;28;20024;-66
2021/10/13 00:19:22;;;;;;;0.20;0.20;;;;;;;;;;5029200;28;20021;-66
2021/10/13 00:21:48;;;;;;;1.15;0.20;;;;;;;;;;5030438;28;20364;-66
2021/10/13 00:24:14;;;;;;;0.20;0.20;;;;;;;;;;5030701;28;20037;-66
2021/10/13 00:26:39;;;;;;;0.30;0.30;;;;;;;;;;5030242;28;20105;-66
2021/10/13 00:29:05;;;;;;;0.43;0.30;;;;;;;;;;5024923;28;20536;-66
2021/10/13 00:31:30;;;;;;;0.20;0.20;;;;;;;;;;5011182;28;20022;-66
2021/10/13 00:33:56;;;;;;;0.63;0.30;;;;;;;;;;5038626;28;20024;-66
2021/10/13 00:36:21;;;;;;;0.30;0.30;;;;;;;;;;5035768;28;20484;-67
2021/10/13 00:38:47;;;;;;;0.30;0.30;;;;;;;;;;5030537;28;20029;-66
2021/10/13 00:41:12;;;;;;;0.30;0.30;;;;;;;;;;5033737;28;20116;-66
2021/10/13 00:43:38;;;;;;;0.45;0.40;;;;;;;;;;5034798;28;20036;-66
2021/10/13 00:46:03;;;;;;;0.30;0.30;;;;;;;;;;5034291;28;20056;-66
2021/10/13 00:48:29;;;;;;;0.40;0.30;;;;;;;;;;5034181;28;20109;-67
2021/10/13 00:50:54;;;;;;;0.77;0.30;;;;;;;;;;5034054;28;20482;-65
2021/10/13 00:53:22;;;;;;;0.25;0.22;;;;;;;;;;5034091;28;20037;-70
2021/10/13 00:55:48;;;;;;;0.20;0.20;;;;;;;;;;5040299;28;20033;-67
2021/10/13 00:58:14;;;;;;;0.30;0.30;;;;;;;;;;5033676;28;20061;-67
2021/10/13 01:00:43;;;;;;;0.50;0.30;;;;;;;;;;5033946;28;20639;-67
2021/10/13 01:03:15;;;;;;;0.35;0.20;;;;;;;;;;5033081;28;20496;-67
2021/10/13 01:05:56;;;;;;;0.40;0.30;;;;;;;;;;5033835;28;20127;-68
2021/10/13 01:08:39;;;;;;;0.40;0.30;;;;;;;;;;5034231;28;20091;-68
2021/10/13 01:11:14;;;;;;;0.55;0.30;;;;;;;;;;5034097;28;20029;-67
2021/10/13 01:14:09;;;;;;;0.35;0.30;;;;;;;;;;5033884;28;20439;-68
2021/10/13 01:16:55;;;;;;;1.85;0.40;;;;;;;;;;5033704;28;20026;-67
2021/10/13 01:19:37;;;;;;;1.00;0.30;;;;;;;;;;5033809;28;20496;-69
2021/10/13 01:22:28;;;;;;;0.75;0.40;;;;;;;;;;5033437;28;20021;-67
2021/10/13 01:25:10;;;;;;;0.73;0.38;;;;;;;;;;5033521;28;20025;-67
2021/10/13 01:27:52;;;;;;;0.85;0.40;;;;;;;;;;5033528;28;20053;-67
2021/10/13 01:30:19;;;;;;;0.40;0.40;;;;;;;;;;5033464;28;20025;-67
2021/10/13 01:32:51;;;;;;;0.30;0.30;;;;;;;;;;5033583;28;20116;-67
2021/10/13 01:35:19;;;;;;;0.38;0.38;;;;;;;;;;5031775;28;20025;-67
2021/10/13 01:37:51;;;;;;;2.58;0.73;;;;;;;;;;5033344;28;20033;-67
2021/10/13 01:40:19;;;;;;;1.38;0.57;;;;;;;;;;5033392;28;20063;-68
2021/10/13 01:42:49;;;;;;;3.63;0.45;;;;;;;;;;5033389;28;20117;-67
2021/10/13 01:45:17;;;;;;;0.40;0.40;;;;;;;;;;5032981;28;20048;-67
2021/10/13 01:47:45;;;;;;;0.40;0.40;;;;;;;;;;5033629;28;20381;-68
2021/10/13 01:50:12;;;;;;;0.20;0.20;;;;;;;;;;5033143;28;20388;-67
2021/10/13 01:52:39;;;;;;;0.30;0.30;;;;;;;;;;5032067;28;20068;-67
2021/10/13 01:55:06;;;;;;;0.73;0.43;;;;;;;;;;5033517;28;20359;-67
2021/10/13 01:57:34;;;;;;;0.40;0.40;;;;;;;;;;5034928;28;20025;-67
2021/10/13 02:00:07;;;;;;;0.57;0.50;;;;;;;;;;5032379;28;20049;-67
2021/10/13 02:02:34;;;;;;;0.50;0.40;;;;;;;;;;5032882;28;20137;-67
2021/10/13 02:05:01;;;;;;;0.65;0.40;;;;;;;;;;5032609;28;20345;-67
2021/10/13 02:07:28;;;;;;;1.30;0.50;;;;;;;;;;5032779;28;20067;-67
2021/10/13 02:10:02;;;;;;;1.10;0.47;;;;;;;;;;5033115;28;20033;-67
2021/10/13 02:12:32;;;;;;;2.08;0.50;;;;;;;;;;5033232;28;20087;-67
2021/10/13 02:14:59;;;;;;;0.82;0.50;;;;;;;;;;5017538;28;20457;-67
2021/10/13 02:17:25;;;;;;;1.38;0.40;;;;;;;;;;5032369;28;20022;-67
2021/10/13 02:19:53;;;;;;;1.25;0.50;;;;;;;;;;5033052;28;20386;-67
2021/10/13 02:22:19;;;;;;;1.35;0.70;;;;;;;;;;5032566;28;20087;-67
2021/10/13 02:24:49;;;;;;;5.13;0.80;;;;;;;;;;5032913;28;20026;-67
2021/10/13 02:27:46;;;;;;;1.02;0.68;;;;;;;;;;5031933;28;20033;-67
2021/10/13 02:30:12;;;;;;;0.90;0.50;;;;;;;;;;5031275;28;20475;-67
2021/10/13 02:32:38;;;;;;;1.05;0.40;;;;;;;;;;5032484;28;20037;-67
2021/10/13 02:35:05;;;;;;;1.58;0.50;;;;;;;;;;5051435;28;20477;-66
2021/10/13 02:37:31;;;;;;;0.98;0.40;;;;;;;;;;5038692;28;20500;-67
2021/10/13 02:39:57;;;;;;;0.32;0.30;;;;;;;;;;5032573;28;20022;-67
2021/10/13 02:42:22;;;;;;;0.68;0.40;;;;;;;;;;5032095;28;20021;-68
2021/10/13 02:44:48;;;;;;;1.65;0.77;;;;;;;;;;5032454;28;20025;-68
2021/10/13 02:47:24;;;;;;;0.85;0.40;;;;;;;;;;5032073;28;20061;-67
2021/10/13 02:50:10;;;;;;;0.65;0.60;;;;;;;;;;5032225;28;20025;-67
2021/10/13 02:53:07;;;;;;;0.75;0.30;;;;;;;;;;5031477;28;20049;-67
2021/10/13 02:55:36;;;;;;;0.95;0.40;;;;;;;;;;5035549;28;20110;-67
2021/10/13 02:58:26;;;;;;;1.20;0.63;;;;;;;;;;5031966;28;20520;-67
2021/10/13 03:00:53;;;;;;;3.40;0.50;;;;;;;;;;5031694;28;20137;-66
2021/10/13 03:03:38;;;;;;;6.57;0.60;;;;;;;;;;5031716;28;20025;-66
2021/10/13 03:06:07;;;;;;;0.88;0.45;;;;;;;;;;5031442;28;20045;-66
2021/10/13 03:08:36;;;;;;;1.42;0.40;;;;;;;;;;5030801;28;20158;-66
2021/10/13 03:11:04;;;;;;;0.52;0.30;;;;;;;;;;5031665;28;20030;-66
2021/10/13 03:13:36;;;;;;;0.82;0.30;;;;;;;;;;5031772;28;20465;-66
2021/10/13 03:16:02;;;;;;;0.45;0.30;;;;;;;;;;5031536;28;20021;-66
2021/10/13 03:18:29;;;;;;;1.38;0.40;;;;;;;;;;5031297;28;20029;-66
2021/10/13 03:20:55;;;;;;;3.83;0.52;;;;;;;;;;5031650;28;20029;-66
2021/10/13 03:23:22;;;;;;;1.85;0.52;;;;;;;;;;5031343;28;20033;-67
2021/10/13 03:25:51;;;;;;;0.20;0.20;;;;;;;;;;5029288;28;20036;-67
2021/10/13 03:28:18;;;;;;;0.57;0.28;;;;;;;;;;5018171;28;20045;-67
2021/10/13 03:30:44;;;;;;;1.00;0.32;;;;;;;;;;5030159;28;20033;-67
2021/10/13 03:33:10;;;;;;;1.67;0.40;;;;;;;;;;5033982;28;20033;-67
2021/10/13 03:35:35;;;;;;;3.05;0.50;;;;;;;;;;5038325;28;20025;-67
2021/10/13 03:38:03;;;;;;;0.52;0.40;;;;;;;;;;5030872;28;20036;-67
2021/10/13 03:40:30;;;;;;;0.43;0.30;;;;;;;;;;5030713;28;20026;-67
2021/10/13 03:42:56;;;;;;;2.03;0.50;;;;;;;;;;5031512;28;20658;-67
2021/10/13 03:45:24;;;;;;;1.70;0.60;;;;;;;;;;5046014;28;20033;-67
2021/10/13 03:47:50;;;;;;;3.47;0.50;;;;;;;;;;5027752;28;20029;-67
2021/10/13 03:50:18;;;;;;;1.38;0.40;;;;;;;;;;5021035;28;20491;-67
2021/10/13 03:52:44;;;;;;;3.17;0.60;;;;;;;;;;5018579;28;20041;-67
2021/10/13 03:55:13;;;;;;;1.20;0.40;;;;;;;;;;5030832;28;20029;-67
2021/10/13 03:57:39;;;;;;;2.15;0.60;;;;;;;;;;5030913;28;20079;-66
2021/10/13 04:00:08;;;;;;;2.28;0.60;;;;;;;;;;5029801;28;20117;-67
2021/10/13 04:02:34;;;;;;;4.93;0.80;;;;;;;;;;5030203;28;20068;-66
2021/10/13 04:04:59;;;;;;;2.57;0.90;;;;;;;;;;5029710;28;20114;-67
2021/10/13 04:07:25;;;;;;;4.18;0.90;;;;;;;;;;5030281;28;20240;-67
2021/10/13 04:09:50;;;;;;;2.17;0.70;;;;;;;;;;5030979;28;20029;-66
2021/10/13 04:12:15;;;;;;;3.15;1.33;;;;;;;;;;5030953;28;20035;-66
2021/10/13 04:14:42;;;;;;;3.42;0.90;;;;;;;;;;5030215;28;20029;-66
2021/10/13 04:17:07;;;;;;;2.72;0.88;;;;;;;;;;5029448;28;20087;-66
2021/10/13 04:19:33;;;;;;;1.55;0.68;;;;;;;;;;5030866;28;20037;-66
2021/10/13 04:21:59;;;;;;;1.27;0.73;;;;;;;;;;5030526;28;20036;-66
2021/10/13 04:24:24;;;;;;;1.75;0.70;;;;;;;;;;5030275;28;20037;-66
2021/10/13 04:26:50;;;;;;;1.52;0.80;;;;;;;;;;5032002;28;20075;-68
2021/10/13 04:29:15;;;;;;;1.73;0.70;;;;;;;;;;5029164;28;20374;-67
2021/10/13 04:31:41;;;;;;;4.65;0.90;;;;;;;;;;5043773;28;20029;-67
2021/10/13 04:34:06;;;;;;;0.65;0.65;;;;;;;;;;5034737;28;20017;-67
2021/10/13 04:36:31;;;;;;;1.75;0.80;;;;;;;;;;5028489;28;20022;-67
2021/10/13 04:38:57;;;;;;;2.25;0.80;;;;;;;;;;5027723;28;20413;-66
2021/10/13 04:41:22;;;;;;;2.08;0.70;;;;;;;;;;5029688;28;20028;-66
2021/10/13 04:43:47;;;;;;;1.30;0.80;;;;;;;;;;5030048;28;20083;-67
2021/10/13 04:46:13;;;;;;;2.28;0.68;;;;;;;;;;5029807;28;20377;-67
2021/10/13 04:48:38;;;;;;;2.28;0.75;;;;;;;;;;5030647;28;20032;-68
2021/10/13 04:51:04;;;;;;;2.25;0.93;;;;;;;;;;5026724;28;20022;-66
2021/10/13 04:53:29;;;;;;;1.77;0.80;;;;;;;;;;5013627;28;20501;-66
2021/10/13 04:55:55;;;;;;;5.10;0.98;;;;;;;;;;5028709;28;20010;-66
2021/10/13 04:58:20;;;;;;;5.13;0.95;;;;;;;;;;5029262;28;20482;-67
2021/10/13 05:00:45;;;;;;;1.95;0.80;;;;;;;;;;5023392;28;20402;-67
2021/10/13 05:03:11;;;;;;;0.63;0.60;;;;;;;;;;5028600;28;20474;-66
2021/10/13 05:05:37;;;;;;;0.88;0.55;;;;;;;;;;5028268;28;20057;-67
2021/10/13 05:08:03;;;;;;;1.10;0.70;;;;;;;;;;5027579;28;20021;-66
2021/10/13 05:10:29;;;;;;;3.90;0.90;;;;;;;;;;5028636;28;20057;-67
2021/10/13 05:12:54;;;;;;;3.47;0.80;;;;;;;;;;5027140;28;20302;-67
2021/10/13 05:15:20;;;;;;;1.75;0.90;;;;;;;;;;5017075;28;20026;-67
2021/10/13 05:17:45;;;;;;;0.95;0.63;;;;;;;;;;5010732;28;20034;-67
2021/10/13 05:20:11;;;;;;;1.20;0.70;;;;;;;;;;5019853;28;20072;-67
2021/10/13 05:22:37;;;;;;;1.73;0.85;;;;;;;;;;5029381;28;20033;-66
2021/10/13 05:25:03;;;;;;;1.30;0.82;;;;;;;;;;5029878;28;20034;-67
2021/10/13 05:27:29;;;;;;;5.75;1.10;;;;;;;;;;5028023;28;20033;-67
2021/10/13 05:29:54;;;;;;;2.25;0.80;;;;;;;;;;5018014;28;20029;-67
2021/10/13 05:32:20;;;;;;;2.25;0.80;;;;;;;;;;5017289;28;20048;-67
2021/10/13 05:34:45;;;;;;;5.97;1.30;;;;;;;;;;5041511;28;20122;-67
2021/10/13 05:37:11;;;;;;;1.98;0.70;;;;;;;;;;5031817;28;20028;-68
2021/10/13 05:39:36;;;;;;;3.42;0.93;;;;;;;;;;5033719;28;20461;-67
2021/10/13 05:42:02;;;;;;;2.75;0.80;;;;;;;;;;5033497;28;20407;-67
2021/10/13 05:44:27;;;;;;;5.18;1.00;;;;;;;;;;5027647;28;20482;-68
2021/10/13 05:46:53;;;;;;;5.15;1.10;;;;;;;;;;5013764;28;20492;-66
2021/10/13 05:49:20;;;;;;;4.43;1.00;;;;;;;;;;5013959;28;20045;-67
2021/10/13 05:51:45;;;;;;;1.20;0.65;;;;;;;;;;5014048;28;20030;-67
2021/10/13 05:54:11;;;;;;;4.55;0.70;;;;;;;;;;5028267;28;20037;-67
2021/10/13 05:56:37;;;;;;;1.85;0.60;;;;;;;;;;5035844;28;20048;-67
2021/10/13 05:59:03;;;;;;;1.75;0.70;;;;;;;;;;5032857;28;20052;-67
2021/10/13 06:01:28;;;;;;;0.88;0.50;;;;;;;;;;5030336;28;20047;-67
2021/10/13 06:03:54;;;;;;;1.45;0.50;;;;;;;;;;5026007;28;20108;-67
2021/10/13 06:06:19;;;;;;;1.98;0.50;;;;;;;;;;5032570;28;20087;-67
2021/10/13 06:08:45;;;;;;;1.52;0.60;;;;;;;;;;5032805;28;20029;-66
2021/10/13 06:11:12;;;;;;;3.38;0.77;;;;;;;;;;5031686;28;20037;-67
2021/10/13 06:13:38;;;;;;;2.45;0.73;;;;;;;;;;5026885;28;20040;-67
2021/10/13 06:16:07;;;;;;;2.70;0.80;;;;;;;;;;5020397;28;20045;-67
2021/10/13 06:18:33;;;;;;;2.45;0.90;;;;;;;;;;5027910;28;20025;-67
2021/10/13 06:20:59;;;;;;;3.10;0.80;;;;;;;;;;5032323;28;20038;-67
2021/10/13 06:23:24;;;;;;;3.47;0.80;;;;;;;;;;5032518;28;20462;-69
2021/10/13 06:25:50;;;;;;;3.10;0.65;;;;;;;;;;5030967;28;20746;-67
2021/10/13 06:28:15;;;;;;;2.72;0.80;;;;;;;;;;5014856;28;20061;-67
2021/10/13 06:30:42;;;;;;;5.63;0.50;;;;;;;;;;5031040;28;20017;-67
2021/10/13 06:33:08;;;;;;;1.40;0.52;;;;;;;;;;5027161;28;20354;-67
2021/10/13 06:35:33;;;;;;;1.92;0.40;;;;;;;;;;5032465;28;20026;-67
2021/10/13 06:37:59;;;;;;;3.05;0.47;;;;;;;;;;5013278;28;20053;-67
2021/10/13 06:40:24;;;;;;;4.50;0.95;;;;;;;;;;5030308;28;20036;-67
2021/10/13 06:42:50;;;;;;;6.28;0.70;;;;;;;;;;5033212;28;20462;-67
2021/10/13 06:45:15;;;;;;;1.50;0.60;;;;;;;;;;5018626;28;20083;-67
2021/10/13 06:47:41;;;;;;;0.70;0.57;;;;;;;;;;5032632;28;20166;-67
2021/10/13 06:50:08;;;;;;;2.30;0.65;;;;;;;;;;5031883;28;20116;-66
2021/10/13 06:52:33;;;;;;;1.88;0.60;;;;;;;;;;5020710;28;20152;-67
2021/10/13 06:54:59;;;;;;;3.75;0.50;;;;;;;;;;5013599;28;20112;-67
2021/10/13 06:57:24;;;;;;;3.80;0.65;;;;;;;;;;5032954;28;20014;-67
2021/10/13 06:59:50;;;;;;;3.20;0.60;;;;;;;;;;5030384;28;20511;-66
2021/10/13 07:02:15;;;;;;;1.98;0.47;;;;;;;;;;5024215;28;20650;-67
2021/10/13 07:04:41;;;;;;;3.20;0.75;;;;;;;;;;5032177;28;20033;-66
2021/10/13 07:07:07;;;;;;;2.58;0.50;;;;;;;;;;5026118;28;20370;-67
2021/10/13 07:09:33;;;;;;;3.42;0.63;;;;;;;;;;5029689;28;20033;-66
2021/10/13 07:11:58;;;;;;;4.85;0.50;;;;;;;;;;5030996;28;20424;-66
2021/10/13 07:14:24;;;;;;;3.25;0.85;;;;;;;;;;5034112;28;20032;-68
2021/10/13 07:16:49;;;;;;;3.85;0.50;;;;;;;;;;5031362;28;20045;-67
2021/10/13 07:19:15;;;;;;;2.47;0.50;;;;;;;;;;5029503;28;20466;-66
2021/10/13 07:21:41;;;;;;;3.45;0.60;;;;;;;;;;5032211;28;20025;-67
2021/10/13 07:24:06;;;;;;;3.33;0.82;;;;;;;;;;5032105;28;20029;-67
2021/10/13 07:26:34;;;;;;;0.80;0.50;;;;;;;;;;5032080;28;20108;-68
2021/10/13 07:28:59;;;;;;;0.45;0.40;;;;;;;;;;5031936;28;20029;-67
2021/10/13 07:31:27;;;;;;;2.85;0.50;;;;;;;;;;5026355;28;20026;-66
2021/10/13 07:33:53;;;;;;;3.45;0.50;;;;;;;;;;5032107;28;20029;-67
2021/10/13 07:36:19;;;;;;;5.55;0.55;;;;;;;;;;5030402;28;20060;-68
2021/10/13 07:38:46;;;;;;;2.30;0.47;;;;;;;;;;5030200;28;20501;-67
2021/10/13 07:41:12;;;;;;;2.92;0.50;;;;;;;;;;5029420;28;20052;-68
2021/10/13 07:43:39;;;;;;;2.92;0.45;;;;;;;;;;5019928;28;20034;-68
2021/10/13 07:46:05;;;;;;;1.25;0.50;;;;;;;;;;5032484;28;20076;-65
2021/10/13 07:48:30;;;;;;;0.45;0.30;;;;;;;;;;5034402;28;20385;-66
2021/10/13 07:50:56;;;;;;;3.72;0.57;;;;;;;;;;5039498;28;20021;-66
2021/10/13 07:53:23;;;;;;;0.77;0.40;;;;;;;;;;5039903;28;20230;-67
2021/10/13 07:55:48;;;;;;;1.65;0.50;;;;;;;;;;5045276;28;20013;-66
2021/10/13 07:58:14;;;;;;;1.50;0.40;;;;;;;;;;5030143;28;20029;-65
2021/10/13 08:00:39;;;;;;;2.38;0.30;;;;;;;;;;5030375;28;20468;-66
2021/10/13 08:03:05;;;;;;;1.52;0.30;;;;;;;;;;5030657;28;20044;-67
2021/10/13 08:05:30;;;;;;;1.65;0.40;;;;;;;;;;5033045;28;20346;-66
2021/10/13 08:07:57;;;;;;;0.95;0.30;;;;;;;;;;5030284;28;20466;-67
2021/10/13 08:10:23;;;;;;;4.43;0.60;;;;;;;;;;5030623;28;20032;-66
2021/10/13 08:12:49;;;;;;;1.63;0.30;;;;;;;;;;5033392;28;20493;-66
2021/10/13 08:15:16;;;;;;;1.27;0.40;;;;;;;;;;5031292;28;20029;-65
2021/10/13 08:17:42;;;;;;;4.97;1.05;;;;;;;;;;5030978;28;20027;-65
2021/10/13 08:20:10;;;;;;;0.40;0.30;;;;;;;;;;5029743;28;20048;-65
2021/10/13 08:22:37;;;;;;;2.78;0.55;;;;;;;;;;5030342;28;20036;-65
2021/10/13 08:25:04;;;;;;;1.85;0.40;;;;;;;;;;5027739;28;20036;-66
2021/10/13 08:27:30;;;;;;;2.40;0.47;;;;;;;;;;5035849;28;20040;-66
2021/10/13 08:29:55;;;;;;;1.58;0.38;;;;;;;;;;5039129;28;20022;-65
2021/10/13 08:32:21;;;;;;;2.80;0.60;;;;;;;;;;5031542;28;20032;-66
2021/10/13 08:34:46;;;;;;;1.23;0.50;;;;;;;;;;5030481;28;20026;-65
2021/10/13 08:37:12;;;;;;;1.38;0.40;;;;;;;;;;5032440;28;20059;-65
2021/10/13 08:39:37;;;;;;;0.43;0.40;;;;;;;;;;5031603;28;20784;-66
2021/10/13 08:42:03;;;;;;;2.28;0.45;;;;;;;;;;5035789;28;20018;-66
2021/10/13 08:44:30;;;;;;;1.13;0.30;;;;;;;;;;5032462;28;20603;-66
2021/10/13 08:46:56;;;;;;;1.65;0.40;;;;;;;;;;5031878;28;20029;-67
2021/10/13 08:49:21;;;;;;;2.40;0.50;;;;;;;;;;5033378;28;20082;-67
2021/10/13 08:51:47;;;;;;;1.80;0.50;;;;;;;;;;5028870;28;20734;-66
2021/10/13 08:54:19;;;;;;;2.67;0.50;;;;;;;;;;5031695;28;20048;-66
2021/10/13 08:56:46;;;;;;;3.65;0.70;;;;;;;;;;5036662;28;20029;-67
2021/10/13 08:59:40;;;;;;;1.27;0.32;;;;;;;;;;5029937;28;20143;-65
2021/10/13 09:02:07;;;;;;;1.42;0.43;;;;;;;;;;5028581;28;20426;-66
2021/10/13 09:04:32;;;;;;;0.95;0.30;;;;;;;;;;5033173;28;20033;-65
2021/10/13 09:07:05;;;;;;;3.13;0.63;;;;;;;;;;5034031;28;20060;-67
2021/10/13 09:09:31;;;;;;;1.05;0.30;;;;;;;;;;5035395;28;21321;-65
2021/10/13 09:11:57;;;;;;;3.85;0.40;;;;;;;;;;5037152;28;20025;-66
2021/10/13 09:14:31;;;;;;;1.10;0.38;;;;;;;;;;5032267;28;20660;-66
2021/10/13 09:17:04;;;;;;;0.88;0.30;;;;;;;;;;5032521;28;20025;-67
2021/10/13 09:19:47;;;;;;;1.17;0.30;;;;;;;;;;5040460;28;20403;-66
2021/10/13 09:22:17;;;;;;;3.42;0.32;;;;;;;;;;5034482;28;20037;-67
2021/10/13 09:24:47;;;;;;;1.05;0.30;;;;;;;;;;5038596;28;20409;-67
2021/10/13 09:27:22;;;;;;;0.68;0.30;;;;;;;;;;5035855;28;20025;-67
2021/10/13 09:29:48;;;;;;;1.83;0.60;;;;;;;;;;5039411;28;20485;-66
2021/10/13 09:32:20;;;;;;;1.45;0.35;;;;;;;;;;5038681;28;20030;-67
2021/10/13 09:34:47;;;;;;;1.98;0.55;;;;;;;;;;5035461;28;20144;-66
2021/10/13 09:37:12;;;;;;;0.98;0.50;;;;;;;;;;5033439;28;20014;-65
2021/10/13 09:39:38;;;;;;;0.98;0.30;;;;;;;;;;5033093;28;20578;-66
2021/10/13 09:42:10;;;;;;;2.28;0.60;;;;;;;;;;5033278;28;20359;-68
2021/10/13 09:44:40;;;;;;;1.55;0.50;;;;;;;;;;5032080;28;20029;-67
2021/10/13 09:47:12;;;;;;;1.80;0.40;;;;;;;;;;5032741;28;20029;-67
2021/10/13 09:49:42;;;;;;;0.55;0.43;;;;;;;;;;5032343;28;20033;-66
2021/10/13 09:52:17;;;;;;;1.45;0.30;;;;;;;;;;5032068;28;20117;-69
2021/10/13 09:54:57;;;;;;;2.80;0.57;;;;;;;;;;5033277;28;20116;-67
2021/10/13 09:57:25;;;;;;;3.28;0.85;;;;;;;;;;5040110;28;20404;-68
2021/10/13 09:59:59;;;;;;;1.98;0.30;;;;;;;;;;5032155;28;20561;-68
2021/10/13 10:02:27;;;;;;;2.05;0.55;;;;;;;;;;5046680;28;20440;-67
2021/10/13 10:04:55;;;;;;;2.97;0.35;;;;;;;;;;5032688;28;20025;-67
2021/10/13 10:07:21;;;;;;;0.95;0.20;;;;;;;;;;5032530;28;20029;-66
2021/10/13 10:10:16;;;;;;;1.40;0.30;;;;;;;;;;5032921;28;20100;-67
2021/10/13 10:13:04;;;;;;;1.10;0.32;;;;;;;;;;5031740;28;20034;-68
2021/10/13 10:15:32;;;;;;;2.72;0.30;;;;;;;;;;5032444;28;20432;-67
2021/10/13 10:17:58;;;;;;;2.08;0.30;;;;;;;;;;5033440;28;20025;-67
2021/10/13 10:20:40;;;;;;;0.63;0.40;;;;;;;;;;5033494;28;20034;-65
2021/10/13 10:23:34;;;;;;;2.08;0.40;;;;;;;;;;5033040;28;20034;-67
2021/10/13 10:26:24;;;;;;;0.93;0.35;;;;;;;;;;5026428;28;20500;-65
2021/10/13 10:28:50;;;;;;;0.17;0.17;;;;;;;;;;5039669;28;20024;-65
2021/10/13 10:31:37;;;;;;;0.68;0.47;;;;;;;;;;5047847;28;20109;-66
2021/10/13 10:34:02;;;;;;;0.63;0.40;;;;;;;;;;5023871;28;20068;-65
2021/10/13 10:36:47;;;;;;;1.85;0.30;;;;;;;;;;5032575;28;20045;-65
2021/10/13 10:39:15;;;;;;;3.30;0.40;;;;;;;;;;5040213;28;20049;-65
2021/10/13 10:41:44;;;;;;;2.97;0.70;;;;;;;;;;5040134;28;20124;-65
2021/10/13 10:44:37;;;;;;;1.40;0.50;;;;;;;;;;5039902;28;20033;-65
2021/10/13 10:47:11;;;;;;;2.83;0.40;;;;;;;;;;5015872;28;20505;-64
2021/10/13 10:49:53;;;;;;;1.27;0.70;;;;;;;;;;5014817;28;20475;-68
2021/10/13 10:52:23;;;;;;;1.10;0.40;;;;;;;;;;5028220;28;20065;-67
2021/10/13 10:54:53;;;;;;;1.52;0.25;;;;;;;;;;5031968;28;20044;-68
2021/10/13 10:57:39;;;;;;;0.85;0.30;;;;;;;;;;5051439;28;20021;-65
2021/10/13 11:00:09;;;;;;;3.88;0.45;;;;;;;;;;5034559;28;20049;-66
2021/10/13 11:02:38;;;;;;;0.40;0.20;;;;;;;;;;5032693;28;20037;-65
2021/10/13 11:05:05;;;;;;;1.95;0.50;;;;;;;;;;5032946;28;20028;-67
2021/10/13 11:07:32;;;;;;;1.35;0.40;;;;;;;;;;5030966;28;20029;-65
2021/10/13 11:10:01;;;;;;;0.30;0.20;;;;;;;;;;5032966;28;20076;-68
2021/10/13 11:12:27;;;;;;;1.95;0.30;;;;;;;;;;5032453;28;20029;-67
2021/10/13 11:15:11;;;;;;;2.03;0.50;;;;;;;;;;5032244;28;20071;-66
2021/10/13 11:17:36;;;;;;;1.83;0.30;;;;;;;;;;5031931;28;20052;-66
2021/10/13 11:20:09;;;;;;;2.55;0.60;;;;;;;;;;5031992;28;20465;-67
2021/10/13 11:22:35;;;;;;;1.33;0.50;;;;;;;;;;5031725;28;20420;-66
2021/10/13 11:25:19;;;;;;;1.80;0.55;;;;;;;;;;5031705;28;20033;-66
2021/10/13 11:28:12;;;;;;;1.25;0.30;;;;;;;;;;5031845;28;20036;-66
2021/10/13 11:30:47;;;;;;;1.65;0.40;;;;;;;;;;5029359;28;20026;-65
2021/10/13 11:33:14;;;;;;;0.98;0.32;;;;;;;;;;5033441;28;20025;-66
2021/10/13 11:35:41;;;;;;;3.92;1.05;;;;;;;;;;5031254;28;20072;-66
2021/10/13 11:38:07;;;;;;;0.85;0.30;;;;;;;;;;5031800;28;20125;-66
2021/10/13 11:40:34;;;;;;;1.15;0.22;;;;;;;;;;5031766;28;20037;-67
2021/10/13 11:43:09;;;;;;;1.75;0.25;;;;;;;;;;5031513;28;20025;-68
2021/10/13 11:45:34;;;;;;;2.17;0.40;;;;;;;;;;5031141;28;20482;-67
2021/10/13 11:48:01;;;;;;;2.63;0.40;;;;;;;;;;5031855;28;20029;-66
2021/10/13 11:50:31;;;;;;;0.95;0.40;;;;;;;;;;5031391;28;20401;-65
2021/10/13 11:52:58;;;;;;;0.82;0.45;;;;;;;;;;5031240;28;21076;-65
2021/10/13 11:55:30;;;;;;;0.73;0.40;;;;;;;;;;5034097;28;20025;-67
2021/10/13 11:57:57;;;;;;;2.60;0.40;;;;;;;;;;5034548;28;20028;-67
2021/10/13 12:00:28;;;;;;;2.63;0.30;;;;;;;;;;5031032;28;20065;-66
2021/10/13 12:03:07;;;;;;;1.13;0.40;;;;;;;;;;5031163;28;20049;-65
2021/10/13 12:05:43;;;;;;;1.48;0.32;;;;;;;;;;5031021;28;20029;-65
2021/10/13 12:08:12;;;;;;;1.73;0.30;;;;;;;;;;5031251;28;20063;-65
2021/10/13 12:10:51;;;;;;;0.43;0.30;;;;;;;;;;5031206;28;20025;-65
2021/10/13 12:13:27;;;;;;;1.02;0.30;;;;;;;;;;5025083;28;20057;-66
2021/10/13 12:16:10;;;;;;;0.55;0.20;;;;;;;;;;5031089;28;20472;-66
2021/10/13 12:18:37;;;;;;;0.88;0.30;;;;;;;;;;5031624;28;20052;-66
2021/10/13 12:21:03;;;;;;;1.02;0.20;;;;;;;;;;5031094;28;20040;-65
2021/10/13 12:23:39;;;;;;;1.50;0.38;;;;;;;;;;5030861;28;20033;-66
2021/10/13 12:26:23;;;;;;;1.58;0.43;;;;;;;;;;5031161;28;20021;-65
2021/10/13 12:28:53;;;;;;;0.80;0.20;;;;;;;;;;5029006;28;20483;-66
2021/10/13 12:31:21;;;;;;;0.77;0.20;;;;;;;;;;5030068;28;20036;-66
2021/10/13 12:33:54;;;;;;;0.52;0.32;;;;;;;;;;5031031;28;20098;-66
2021/10/13 12:36:36;;;;;;;1.75;0.30;;;;;;;;;;5032261;28;20040;-67
2021/10/13 12:39:15;;;;;;;2.90;0.38;;;;;;;;;;5033416;28;20025;-67
2021/10/13 12:41:45;;;;;;;0.25;0.22;;;;;;;;;;5029760;28;20068;-67
2021/10/13 12:44:13;;;;;;;2.83;0.57;;;;;;;;;;5034881;28;20507;-65
2021/10/13 12:46:39;;;;;;;0.43;0.40;;;;;;;;;;5034464;28;20036;-66
2021/10/13 12:49:16;;;;;;;2.38;0.32;;;;;;;;;;5034511;28;20374;-67
2021/10/13 12:51:58;;;;;;;1.23;0.30;;;;;;;;;;5020835;28;20075;-66
2021/10/13 12:54:26;;;;;;;1.48;0.32;;;;;;;;;;5034739;28;20454;-67
2021/10/13 12:56:51;;;;;;;0.82;0.20;;;;;;;;;;5035252;28;20083;-65
2021/10/13 12:59:17;;;;;;;0.63;0.28;;;;;;;;;;5034465;28;20057;-66
2021/10/13 13:01:42;;;;;;;1.15;0.30;;;;;;;;;;5034597;28;20033;-67
2021/10/13 13:04:08;;;;;;;0.88;0.20;;;;;;;;;;5034562;28;20031;-67
2021/10/13 13:06:33;;;;;;;1.42;0.20;;;;;;;;;;5034281;28;20508;-67
2021/10/13 13:09:00;;;;;;;3.38;0.40;;;;;;;;;;5034764;28;20032;-67
2021/10/13 13:11:26;;;;;;;1.20;0.20;;;;;;;;;;5034584;28;20361;-67
2021/10/13 13:13:51;;;;;;;1.50;0.30;;;;;;;;;;5034544;28;20033;-67
2021/10/13 13:16:17;;;;;;;1.73;0.20;;;;;;;;;;5033955;28;20029;-66
2021/10/13 13:18:43;;;;;;;1.25;0.20;;;;;;;;;;5033949;28;20051;-66
2021/10/13 13:21:09;;;;;;;2.85;0.30;;;;;;;;;;5034272;28;20354;-67
2021/10/13 13:23:34;;;;;;;3.83;0.25;;;;;;;;;;5034279;28;20035;-66
2021/10/13 13:25:59;;;;;;;0.20;0.20;;;;;;;;;;5034384;28;20364;-66
2021/10/13 13:28:25;;;;;;;0.32;0.20;;;;;;;;;;5034399;28;20017;-66
2021/10/13 13:30:50;;;;;;;0.20;0.20;;;;;;;;;;5034158;28;20025;-67
2021/10/13 13:33:16;;;;;;;1.52;0.30;;;;;;;;;;5036806;28;20052;-67
2021/10/13 13:35:41;;;;;;;1.23;0.20;;;;;;;;;;5033354;28;20569;-66
2021/10/13 13:38:07;;;;;;;0.10;0.10;;;;;;;;;;5032496;28;20025;-66
2021/10/13 13:40:36;;;;;;;1.02;0.10;;;;;;;;;;5034042;28;20022;-66
2021/10/13 13:43:02;;;;;;;1.00;0.20;;;;;;;;;;5034043;28;20037;-66
2021/10/13 13:45:27;;;;;;;0.35;0.30;;;;;;;;;;5033645;28;20413;-66
2021/10/13 13:47:53;;;;;;;0.35;0.10;;;;;;;;;;5032406;28;20029;-67
2021/10/13 13:50:18;;;;;;;0.85;0.10;;;;;;;;;;5033370;28;20029;-67
2021/10/13 13:52:44;;;;;;;0.47;0.28;;;;;;;;;;5033519;28;20021;-66
2021/10/13 13:55:09;;;;;;;0.30;0.20;;;;;;;;;;5034199;28;20443;-66
2021/10/13 13:57:35;;;;;;;0.68;0.20;;;;;;;;;;5033538;28;20033;-67
2021/10/13 14:00:03;;;;;;;0.88;0.25;;;;;;;;;;5033731;28;20038;-66
2021/10/13 14:02:28;;;;;;;0.20;0.20;;;;;;;;;;5033473;28;20424;-67
2021/10/13 14:04:55;;;;;;;0.10;0.10;;;;;;;;;;5033243;28;20030;-66
2021/10/13 14:07:20;;;;;;;2.28;0.20;;;;;;;;;;5033342;28;20029;-65
2021/10/13 14:09:46;;;;;;;1.33;0.30;;;;;;;;;;5033519;28;20150;-66
2021/10/13 14:12:11;;;;;;;0.38;0.20;;;;;;;;;;5033129;28;20037;-68
2021/10/13 14:14:37;;;;;;;4.88;0.32;;;;;;;;;;5033245;28;20033;-66
2021/10/13 14:17:02;;;;;;;1.08;0.20;;;;;;;;;;5033027;28;20025;-67
2021/10/13 14:19:28;;;;;;;0.40;0.17;;;;;;;;;;5033158;28;20051;-66
2021/10/13 14:21:53;;;;;;;0.20;0.20;;;;;;;;;;5032977;28;20370;-66
2021/10/13 14:24:19;;;;;;;0.20;0.20;;;;;;;;;;5029767;28;20032;-66
2021/10/13 14:26:44;;;;;;;1.23;0.20;;;;;;;;;;5032418;28;20052;-67
2021/10/13 14:29:10;;;;;;;0.95;0.30;;;;;;;;;;5033467;28;20037;-69
2021/10/13 14:31:36;;;;;;;0.10;0.10;;;;;;;;;;5032781;28;20092;-66
2021/10/13 14:34:02;;;;;;;0.68;0.15;;;;;;;;;;5039968;28;20100;-67
2021/10/13 14:36:28;;;;;;;0.45;0.25;;;;;;;;;;5032506;28;20021;-67
2021/10/13 14:38:53;;;;;;;2.13;0.38;;;;;;;;;;5032597;28;20037;-67
2021/10/13 14:41:19;;;;;;;0.80;0.20;;;;;;;;;;5032525;28;20036;-66
2021/10/13 14:43:45;;;;;;;0.85;0.20;;;;;;;;;;5032331;28;20040;-68
2021/10/13 14:46:11;;;;;;;1.55;0.52;;;;;;;;;;5032744;28;20068;-65
2021/10/13 14:48:37;;;;;;;0.77;0.20;;;;;;;;;;5031978;28;20095;-67
2021/10/13 14:51:03;;;;;;;0.45;0.20;;;;;;;;;;5030850;28;20034;-65
2021/10/13 14:53:29;;;;;;;1.20;0.30;;;;;;;;;;5035951;28;20045;-66